createdAt,value
2022-10-04T00:01:45.147Z,12.17
2022-10-04T00:04:22.676Z,12.23
2022-10-04T00:06:55.408Z,12.06
2022-10-04T00:09:33.528Z,12.21
2022-10-04T00:12:02.433Z,12.24
2022-10-04T00:14:32.887Z,12.13
2022-10-04T00:17:07.773Z,12.09
2022-10-04T00:19:47.821Z,11.98
2022-10-04T00:22:23.090Z,12.00
2022-10-04T00:25:07.943Z,12.07
2022-10-04T00:27:37.096Z,11.97
2022-10-04T00:30:03.614Z,11.72
2022-10-04T00:32:42.047Z,11.74
2022-10-04T00:35:27.005Z,11.75
2022-10-04T00:38:13.768Z,11.83
2022-10-04T00:40:43.228Z,11.55
2022-10-04T00:43:20.723Z,11.61
2022-10-04T00:45:54.505Z,11.50
2022-10-04T00:48:31.627Z,11.50
2022-10-04T00:51:10.223Z,11.52
2022-10-04T00:54:05.913Z,11.59
2022-10-04T00:56:51.707Z,11.49
2022-10-04T00:59:50.725Z,11.54
2022-10-04T01:02:20.262Z,11.42
2022-10-04T01:05:05.350Z,11.52
2022-10-04T01:07:49.702Z,11.78
2022-10-04T01:10:22.182Z,11.75
2022-10-04T01:12:58.825Z,11.82
2022-10-04T01:15:50.921Z,11.63
2022-10-04T01:18:20.642Z,11.54
2022-10-04T01:21:19.462Z,11.80
2022-10-04T01:23:47.383Z,11.70
2022-10-04T01:26:35.249Z,11.39
2022-10-04T01:29:15.446Z,11.02
2022-10-04T01:31:46.236Z,10.97
2022-10-04T01:34:15.998Z,10.83
2022-10-04T01:36:44.344Z,10.82
2022-10-04T01:39:11.232Z,11.08
2022-10-04T01:41:56.758Z,11.10
2022-10-04T01:45:02.235Z,11.19
2022-10-04T01:47:44.096Z,11.44
2022-10-04T01:50:20.162Z,11.34
2022-10-04T01:52:56.295Z,11.28
2022-10-04T01:55:37.644Z,11.19
2022-10-04T01:58:09.338Z,11.23
2022-10-04T02:00:43.659Z,11.43
2022-10-04T02:03:20.976Z,11.47
2022-10-04T02:05:59.049Z,11.42
2022-10-04T02:08:31.235Z,11.40
2022-10-04T02:10:58.611Z,11.43
2022-10-04T02:13:29.508Z,11.47
2022-10-04T02:15:58.903Z,11.32
2022-10-04T02:18:27.095Z,11.03
2022-10-04T02:20:55.205Z,10.85
2022-10-04T02:23:23.984Z,10.82
2022-10-04T02:25:51.140Z,11.00
2022-10-04T02:28:19.027Z,11.06
2022-10-04T02:31:10.348Z,11.09
2022-10-04T02:33:45.835Z,11.08
2022-10-04T02:36:13.909Z,10.87
2022-10-04T02:38:50.988Z,11.09
2022-10-04T02:41:24.356Z,11.19
2022-10-04T02:43:59.474Z,11.22
2022-10-04T02:46:33.411Z,11.04
2022-10-04T02:49:06.012Z,10.89
2022-10-04T02:51:44.404Z,10.99
2022-10-04T02:54:35.999Z,11.03
2022-10-04T02:57:03.189Z,11.00
2022-10-04T02:59:34.735Z,10.85
2022-10-04T03:02:02.615Z,10.90
2022-10-04T03:04:38.422Z,10.99
2022-10-04T03:07:08.155Z,10.91
2022-10-04T03:09:37.167Z,10.92
2022-10-04T03:12:05.111Z,10.91
2022-10-04T03:14:32.561Z,10.75
2022-10-04T03:17:04.151Z,10.64
2022-10-04T03:19:32.385Z,10.69
2022-10-04T03:22:10.255Z,10.73
2022-10-04T03:24:49.308Z,10.57
2022-10-04T03:27:20.359Z,10.59
2022-10-04T03:29:47.416Z,10.50
2022-10-04T03:32:16.832Z,10.39
2022-10-04T03:34:55.771Z,10.38
2022-10-04T03:37:22.916Z,10.28
2022-10-04T03:39:52.491Z,10.36
2022-10-04T03:42:23.015Z,10.39
2022-10-04T03:44:54.195Z,10.34
2022-10-04T03:47:26.599Z,10.35
2022-10-04T03:49:56.081Z,10.34
2022-10-04T03:52:26.358Z,10.24
2022-10-04T03:54:55.614Z,10.30
2022-10-04T03:57:23.375Z,10.03
2022-10-04T03:59:50.956Z,9.94
2022-10-04T04:02:26.459Z,9.81
2022-10-04T04:05:14.920Z,9.87
2022-10-04T04:08:03.291Z,9.87
2022-10-04T04:10:33.139Z,9.85
2022-10-04T04:13:11.777Z,9.83
2022-10-04T04:15:45.557Z,9.83
2022-10-04T04:18:34.287Z,9.71
2022-10-04T04:21:03.164Z,9.76
2022-10-04T04:23:36.592Z,9.68
2022-10-04T04:26:42.243Z,9.79
2022-10-04T04:29:14.676Z,9.68
2022-10-04T04:31:47.312Z,9.40
2022-10-04T04:34:44.940Z,9.27
2022-10-04T04:37:11.568Z,8.89
2022-10-04T04:39:38.240Z,8.86
2022-10-04T04:42:07.070Z,8.87
2022-10-04T04:44:34.019Z,8.89
2022-10-04T04:47:00.932Z,9.04
2022-10-04T04:49:31.309Z,9.06
2022-10-04T04:51:58.311Z,9.04
2022-10-04T04:54:27.856Z,8.98
2022-10-04T04:56:56.163Z,9.11
2022-10-04T04:59:26.050Z,9.22
2022-10-04T05:01:53.250Z,9.22
2022-10-04T05:04:23.130Z,9.10
2022-10-04T05:07:02.313Z,9.08
2022-10-04T05:09:28.860Z,9.07
2022-10-04T05:12:09.066Z,9.03
2022-10-04T05:14:41.803Z,9.11
2022-10-04T05:17:17.471Z,9.26
2022-10-04T05:19:44.221Z,9.05
2022-10-04T05:22:13.473Z,9.09
2022-10-04T05:24:43.767Z,9.14
2022-10-04T05:27:34.855Z,9.22
2022-10-04T05:30:19.570Z,9.02
2022-10-04T05:33:00.021Z,9.03
2022-10-04T05:35:27.752Z,8.90
2022-10-04T05:38:11.906Z,8.64
2022-10-04T05:41:10.889Z,8.54
2022-10-04T05:43:52.691Z,9.04
2022-10-04T05:46:23.046Z,9.03
2022-10-04T05:49:01.203Z,9.08
2022-10-04T05:51:37.708Z,9.09
2022-10-04T05:54:05.638Z,9.19
2022-10-04T05:57:01.207Z,9.30
2022-10-04T06:00:15.536Z,9.33
2022-10-04T06:02:54.979Z,9.21
2022-10-04T06:05:41.448Z,9.00
2022-10-04T06:08:32.350Z,9.25
2022-10-04T06:11:13.169Z,9.19
2022-10-04T06:13:54.879Z,9.22
2022-10-04T06:16:35.116Z,9.07
2022-10-04T06:19:11.222Z,9.27
2022-10-04T06:21:46.616Z,9.55
2022-10-04T06:24:19.135Z,9.71
2022-10-04T06:26:54.888Z,9.86
2022-10-04T06:29:27.201Z,9.73
2022-10-04T06:32:24.632Z,9.98
2022-10-04T06:35:17.165Z,10.21
2022-10-04T06:37:55.823Z,10.27
2022-10-04T06:40:46.960Z,10.37
2022-10-04T06:43:35.756Z,10.43
2022-10-04T06:46:50.764Z,10.43
2022-10-04T06:49:32.959Z,10.51
2022-10-04T06:52:34.812Z,10.49
2022-10-04T06:55:35.312Z,10.56
2022-10-04T06:58:27.670Z,10.78
2022-10-04T07:01:02.795Z,10.66
2022-10-04T07:03:52.523Z,10.27
2022-10-04T07:06:26.699Z,10.33
2022-10-04T07:09:02.451Z,10.49
2022-10-04T07:11:45.563Z,10.69
2022-10-04T07:14:19.033Z,10.82
2022-10-04T07:16:56.068Z,11.08
2022-10-04T07:19:35.173Z,10.57
2022-10-04T07:22:08.099Z,10.87
2022-10-04T07:24:53.400Z,11.16
2022-10-04T07:27:29.192Z,11.31
2022-10-04T07:29:58.116Z,11.24
2022-10-04T07:32:36.375Z,11.58
2022-10-04T07:35:16.932Z,11.60
2022-10-04T07:37:58.212Z,11.64
2022-10-04T07:40:36.085Z,11.92
2022-10-04T07:43:11.865Z,12.00
2022-10-04T07:45:41.540Z,11.72
2022-10-04T07:48:19.298Z,12.21
2022-10-04T07:51:01.761Z,12.55
2022-10-04T07:53:53.577Z,12.82
2022-10-04T07:56:45.616Z,13.22
2022-10-04T07:59:24.050Z,13.40
2022-10-04T08:02:15.247Z,13.04
2022-10-04T08:05:01.561Z,13.33
2022-10-04T08:08:08.066Z,12.99
2022-10-04T08:11:05.384Z,13.25
2022-10-04T08:13:56.047Z,13.61
2022-10-04T08:16:37.259Z,13.87
2022-10-04T08:19:24.604Z,13.87
2022-10-04T08:22:18.552Z,14.05
2022-10-04T08:25:03.371Z,14.06
2022-10-04T08:28:03.232Z,14.17
2022-10-04T08:30:41.109Z,13.99
2022-10-04T08:33:22.938Z,14.01
2022-10-04T08:36:20.528Z,13.94
2022-10-04T08:38:56.757Z,14.24
2022-10-04T08:42:01.928Z,14.72
2022-10-04T08:44:53.292Z,14.49
2022-10-04T08:47:25.816Z,14.63
2022-10-04T08:49:58.629Z,15.17
2022-10-04T08:52:49.750Z,15.29
2022-10-04T08:55:47.759Z,15.44
2022-10-04T08:58:26.485Z,15.37
2022-10-04T09:01:17.521Z,15.30
2022-10-04T09:03:57.229Z,15.35
2022-10-04T09:06:59.391Z,15.49
2022-10-04T09:09:53.904Z,15.52
2022-10-04T09:12:23.249Z,15.48
2022-10-04T09:15:02.280Z,15.01
2022-10-04T09:18:04.330Z,14.93
2022-10-04T09:20:40.907Z,15.39
2022-10-04T09:23:42.364Z,15.81
2022-10-04T09:26:44.942Z,15.28
2022-10-04T09:29:34.319Z,15.48
2022-10-04T09:32:10.115Z,15.69
2022-10-04T09:34:58.026Z,15.83
2022-10-04T09:37:36.468Z,15.81
2022-10-04T09:40:27.156Z,15.47
2022-10-04T09:43:20.849Z,15.32
2022-10-04T09:46:29.558Z,14.95
2022-10-04T09:49:08.975Z,14.61
2022-10-04T09:52:01.863Z,14.87
2022-10-04T09:54:56.835Z,15.11
2022-10-04T09:57:41.277Z,15.43
2022-10-04T10:00:25.214Z,15.59
2022-10-04T10:03:04.111Z,15.86
2022-10-04T10:05:56.632Z,16.34
2022-10-04T10:08:41.414Z,16.57
2022-10-04T10:11:35.249Z,17.47
2022-10-04T10:14:29.380Z,18.05
2022-10-04T10:17:40.142Z,18.44
2022-10-04T10:20:27.073Z,18.68
2022-10-04T10:23:20.177Z,19.04
2022-10-04T10:26:24.005Z,19.29
2022-10-04T10:29:02.372Z,19.40
2022-10-04T10:31:55.338Z,19.43
2022-10-04T10:34:46.422Z,19.53
2022-10-04T10:37:31.065Z,19.59
2022-10-04T10:40:27.712Z,19.67
2022-10-04T10:43:42.169Z,19.38
2022-10-04T10:46:24.967Z,19.38
2022-10-04T10:49:07.663Z,19.71
2022-10-04T10:52:20.292Z,19.31
2022-10-04T10:55:19.489Z,19.26
2022-10-04T10:57:55.136Z,19.45
2022-10-04T11:00:39.332Z,19.67
2022-10-04T11:03:40.005Z,20.03
2022-10-04T11:06:18.439Z,19.91
2022-10-04T11:09:09.950Z,20.20
2022-10-04T11:12:15.500Z,20.44
2022-10-04T11:15:00.564Z,20.87
2022-10-04T11:17:36.335Z,20.96
2022-10-04T11:20:24.839Z,21.19
2022-10-04T11:23:09.894Z,21.33
2022-10-04T11:25:58.394Z,21.40
2022-10-04T11:28:37.247Z,21.48
2022-10-04T11:31:28.264Z,21.78
2022-10-04T11:34:25.578Z,21.59
2022-10-04T11:37:02.870Z,21.86
2022-10-04T11:39:44.503Z,22.51
2022-10-04T11:42:26.550Z,22.67
2022-10-04T11:45:34.074Z,23.08
2022-10-04T11:48:39.067Z,23.43
2022-10-04T11:51:40.877Z,23.80
2022-10-04T11:54:10.060Z,23.99
2022-10-04T11:57:04.524Z,24.11
2022-10-04T11:59:49.939Z,24.57
2022-10-04T12:02:34.959Z,24.19
2022-10-04T12:05:20.000Z,24.70
2022-10-04T12:08:15.110Z,24.03
2022-10-04T12:10:49.471Z,24.10
2022-10-04T12:13:27.514Z,23.47
2022-10-04T12:16:18.931Z,23.77
2022-10-04T12:19:01.156Z,23.55
2022-10-04T12:21:41.198Z,24.02
2022-10-04T12:24:48.380Z,25.22
2022-10-04T12:27:39.292Z,24.48
2022-10-04T12:30:27.202Z,24.14
2022-10-04T12:33:04.330Z,23.77
2022-10-04T12:36:00.405Z,23.98
2022-10-04T12:39:05.280Z,23.57
2022-10-04T12:41:40.847Z,24.16
2022-10-04T12:44:18.268Z,25.06
2022-10-04T12:46:53.784Z,25.16
2022-10-04T12:49:33.164Z,25.18
2022-10-04T12:52:02.727Z,25.81
2022-10-04T12:55:00.985Z,25.25
2022-10-04T12:57:49.184Z,25.94
2022-10-04T13:00:23.420Z,26.43
2022-10-04T13:03:26.880Z,25.50
2022-10-04T13:06:32.300Z,25.72
2022-10-04T13:09:28.099Z,26.30
2022-10-04T13:12:14.092Z,26.45
2022-10-04T13:14:46.732Z,27.07
2022-10-04T13:17:33.246Z,28.27
2022-10-04T13:20:17.422Z,27.53
2022-10-04T13:23:15.687Z,27.10
2022-10-04T13:25:48.640Z,26.63
2022-10-04T13:28:21.395Z,25.52
2022-10-04T13:30:58.709Z,26.17
2022-10-04T13:33:48.001Z,26.54
2022-10-04T13:36:20.116Z,26.74
2022-10-04T13:39:14.870Z,26.82
2022-10-04T13:42:12.596Z,26.62
2022-10-04T13:44:57.953Z,26.48
2022-10-04T13:47:58.420Z,25.42
2022-10-04T13:50:37.065Z,25.55
2022-10-04T13:53:38.766Z,26.39
2022-10-04T13:56:36.731Z,26.63
2022-10-04T13:59:03.261Z,26.84
2022-10-04T14:01:52.762Z,27.30
2022-10-04T14:04:53.692Z,27.65
2022-10-04T14:07:34.520Z,27.74
2022-10-04T14:10:03.487Z,27.72
2022-10-04T14:12:48.831Z,27.44
2022-10-04T14:15:53.098Z,27.13
2022-10-04T14:18:47.136Z,27.29
2022-10-04T14:21:49.330Z,27.27
2022-10-04T14:24:21.660Z,27.37
2022-10-04T14:27:23.551Z,27.27
2022-10-04T14:29:56.326Z,27.03
2022-10-04T14:32:45.880Z,26.92
2022-10-04T14:35:27.689Z,26.77
2022-10-04T14:38:32.276Z,26.96
2022-10-04T14:41:27.878Z,26.92
2022-10-04T14:44:10.575Z,26.57
2022-10-04T14:46:52.106Z,26.67
2022-10-04T14:50:00.312Z,26.64
2022-10-04T14:52:33.217Z,26.44
2022-10-04T14:55:12.182Z,26.10
2022-10-04T14:58:16.275Z,26.23
2022-10-04T15:00:49.304Z,26.33
2022-10-04T15:03:57.876Z,26.33
2022-10-04T15:06:56.044Z,26.31
2022-10-04T15:09:46.071Z,26.14
2022-10-04T15:12:58.506Z,26.29
2022-10-04T15:15:18.884Z,26.30
2022-10-04T15:17:51.324Z,26.52
2022-10-04T15:20:33.784Z,26.39
2022-10-04T15:23:18.791Z,26.60
2022-10-04T15:25:58.237Z,26.36
2022-10-04T15:28:49.063Z,26.02
2022-10-04T15:31:34.648Z,26.08
2022-10-04T15:34:35.790Z,25.90
2022-10-04T15:37:25.554Z,26.09
2022-10-04T15:40:21.806Z,26.03
2022-10-04T15:43:16.937Z,26.20
2022-10-04T15:46:09.891Z,26.21
2022-10-04T15:48:51.790Z,25.83
2022-10-04T15:51:52.102Z,25.93
2022-10-04T15:54:52.183Z,25.78
2022-10-04T15:57:49.583Z,25.49
2022-10-04T16:00:43.735Z,25.37
2022-10-04T16:03:34.833Z,25.37
2022-10-04T16:06:26.148Z,25.11
2022-10-04T16:09:14.658Z,24.71
2022-10-04T16:11:58.793Z,24.72
2022-10-04T16:14:42.112Z,24.45
2022-10-04T16:17:23.954Z,24.53
2022-10-04T16:20:25.736Z,24.77
2022-10-04T16:23:31.556Z,24.58
2022-10-04T16:26:05.619Z,24.57
2022-10-04T16:28:58.081Z,24.30
2022-10-04T16:31:43.207Z,24.24
2022-10-04T16:34:21.832Z,24.22
2022-10-04T16:37:14.502Z,23.86
2022-10-04T16:39:59.216Z,23.77
2022-10-04T16:42:47.488Z,23.64
2022-10-04T16:45:48.734Z,23.52
2022-10-04T16:48:25.118Z,23.34
2022-10-04T16:51:13.710Z,23.32
2022-10-04T16:54:07.604Z,22.99
2022-10-04T16:56:59.368Z,22.57
2022-10-04T16:59:41.975Z,22.40
2022-10-04T17:02:14.603Z,22.15
2022-10-04T17:04:55.613Z,22.08
2022-10-04T17:07:29.224Z,21.86
2022-10-04T17:10:21.083Z,21.67
2022-10-04T17:13:13.421Z,21.49
2022-10-04T17:16:04.338Z,21.36
2022-10-04T17:18:55.480Z,21.09
2022-10-04T17:21:40.856Z,20.95
2022-10-04T17:24:31.559Z,20.66
2022-10-04T17:27:05.761Z,20.49
2022-10-04T17:29:41.933Z,20.35
2022-10-04T17:32:24.711Z,20.02
2022-10-04T17:35:16.143Z,20.06
2022-10-04T17:38:07.782Z,19.88
2022-10-04T17:40:46.566Z,19.52
2022-10-04T17:43:41.375Z,19.54
2022-10-04T17:46:13.925Z,19.30
2022-10-04T17:49:17.627Z,19.25
2022-10-04T17:52:06.344Z,19.12
2022-10-04T17:54:57.642Z,18.98
2022-10-04T17:57:30.826Z,18.67
2022-10-04T18:00:08.335Z,18.84
2022-10-04T18:02:37.796Z,18.51
2022-10-04T18:05:34.567Z,18.45
2022-10-04T18:08:10.260Z,18.24
2022-10-04T18:10:51.441Z,18.25
2022-10-04T18:13:45.444Z,18.20
2022-10-04T18:16:25.153Z,18.00
2022-10-04T18:18:52.202Z,17.76
2022-10-04T18:21:27.459Z,17.68
2022-10-04T18:23:57.115Z,17.52
2022-10-04T18:26:27.963Z,17.39
2022-10-04T18:28:54.646Z,17.14
2022-10-04T18:31:37.857Z,16.99
2022-10-04T18:34:10.351Z,16.98
2022-10-04T18:36:53.880Z,16.99
2022-10-04T18:39:22.815Z,16.80
2022-10-04T18:42:07.188Z,16.69
2022-10-04T18:44:46.031Z,16.64
2022-10-04T18:47:21.267Z,16.42
2022-10-04T18:49:52.085Z,16.03
2022-10-04T18:52:26.018Z,15.73
2022-10-04T18:55:04.708Z,15.70
2022-10-04T18:57:54.987Z,15.82
2022-10-04T19:00:41.409Z,15.79
2022-10-04T19:03:11.621Z,15.71
2022-10-04T19:06:22.981Z,15.88
2022-10-04T19:09:19.091Z,15.66
2022-10-04T19:11:51.644Z,15.41
2022-10-04T19:14:46.193Z,15.48
2022-10-04T19:17:45.960Z,15.46
2022-10-04T19:20:21.450Z,15.03
2022-10-04T19:23:20.646Z,15.01
2022-10-04T19:29:31.153Z,15.02
2022-10-04T19:32:02.536Z,14.81
2022-10-04T19:34:44.067Z,14.74
2022-10-04T19:37:39.764Z,14.72
2022-10-04T19:40:48.732Z,14.72
2022-10-04T19:43:22.632Z,14.48
2022-10-04T19:46:02.267Z,14.27
2022-10-04T19:48:36.819Z,14.29
2022-10-04T19:51:11.519Z,14.19
2022-10-04T19:53:43.472Z,14.13
2022-10-04T19:56:20.003Z,14.02
2022-10-04T19:58:52.648Z,13.99
2022-10-04T20:01:23.257Z,13.98
2022-10-04T20:04:11.462Z,13.88
2022-10-04T20:06:47.791Z,13.91
2022-10-04T20:09:48.020Z,13.86
2022-10-04T20:12:33.083Z,13.85
2022-10-04T20:15:28.000Z,13.62
2022-10-04T20:17:55.924Z,13.48
2022-10-04T20:20:41.397Z,13.62
2022-10-04T20:23:09.478Z,13.42
2022-10-04T20:25:49.349Z,13.50
2022-10-04T20:28:28.782Z,13.38
2022-10-04T20:30:58.426Z,13.18
2022-10-04T20:33:34.419Z,13.16
2022-10-04T20:36:13.187Z,12.99
2022-10-04T20:38:59.734Z,12.94
2022-10-04T20:42:05.219Z,12.90
2022-10-04T20:44:45.661Z,12.89
2022-10-04T20:47:35.462Z,12.93
2022-10-04T20:50:04.346Z,12.69
2022-10-04T20:52:33.368Z,12.63
2022-10-04T20:55:01.786Z,12.68
2022-10-04T20:57:31.535Z,12.54
2022-10-04T20:59:59.437Z,12.38
2022-10-04T21:02:28.709Z,12.46
2022-10-04T21:05:12.637Z,12.57
2022-10-04T21:07:39.286Z,12.49
2022-10-04T21:10:20.403Z,12.52
2022-10-04T21:12:49.129Z,12.39
2022-10-04T21:15:21.744Z,12.41
2022-10-04T21:18:01.955Z,12.31
2022-10-04T21:20:47.719Z,12.36
2022-10-04T21:23:30.447Z,12.34
2022-10-04T21:26:19.840Z,12.31
2022-10-04T21:28:47.599Z,12.19
2022-10-04T21:31:14.209Z,11.97
2022-10-04T21:33:40.907Z,11.93
2022-10-04T21:36:07.897Z,12.01
2022-10-04T21:38:34.606Z,12.03
2022-10-04T21:41:01.266Z,11.98
2022-10-04T21:43:28.617Z,11.98
2022-10-04T21:45:55.506Z,11.96
2022-10-04T21:48:23.333Z,11.91
2022-10-04T21:50:51.540Z,11.92
2022-10-04T21:53:18.716Z,11.91
2022-10-04T21:55:45.666Z,11.86
2022-10-04T21:58:12.599Z,11.78
2022-10-04T22:00:39.393Z,11.74
2022-10-04T22:03:06.100Z,11.62
2022-10-04T22:05:32.780Z,11.52
2022-10-04T22:07:59.765Z,11.40
2022-10-04T22:10:28.262Z,11.24
2022-10-04T22:12:57.094Z,11.04
2022-10-04T22:15:25.924Z,11.09
